WETO2: N Canadian River, Wetumka, OK

Data processed at Thu Jan 04 2018 23:20


All information presented herein is the property of the government of the United States of America and may be revised or deleted at any time without prior notice.
Dissemination of this information without the expressed written consent of the Public Affairs Office, Tulsa District U.S. Army Corps of Engineers is strictly prohibited.
These data are gathered electronically and, as presented, have not undergone any form of quality control. These data are not guaranteed to be valid or correct.
Go to home page.
Go to station list.

Upstream stations:

Downstream station:
Previous Day
Next Day
Current Day
    
SHEF ID:       WETO2     North Canadian River near Wetumk
STATION TYPE:  

               PRECIP     STAGE  RIV-FLOW  BAT-LOAD
                   in        ft       cfs      volt
              Ccp-Rev   Ccp-Rev   Ccp-Rev   Ccp-Rev
(US/Central)
01/02 00:00      0.00      5.26       155     12.57
01/02 01:00      0.00      5.23       147     12.57
01/02 02:00      0.00      5.19       137     12.49
01/02 03:00      0.00      5.18       134     12.49
01/02 04:00      0.00      5.18       134     12.49
01/02 05:00      0.00      5.18       134     12.41
01/02 06:00      0.00      5.17       132     12.41
01/02 07:00      0.00      5.17       132     12.41
01/02 08:00      0.00      5.16       130     12.41
01/02 09:00      0.00      5.18       134     12.49
01/02 10:00      0.00      5.19       137     12.81
01/02 11:00      0.00      5.24       149     13.53
01/02 12:00      0.00      5.32       170     13.68
01/02 13:00      0.00      5.40       193     13.53
01/02 14:00      0.00      5.40       193     13.53
01/02 15:00      0.00      5.36       181     13.53
01/02 16:00      0.00      5.34       176     13.29
01/02 17:00      0.00      5.34       176     13.13
01/02 18:00      0.00      5.34       176     12.89
01/02 19:00      0.00      5.32       170     12.81
01/02 20:00      0.00      5.30       165     12.81
01/02 21:00      0.00      5.28       160     12.73
01/02 22:00      0.00      5.27       157     12.73
01/02 23:00      0.00      5.27       157     12.65